createdAt,value
2022-12-11T00:00:58.327Z,225.00
2022-12-11T00:01:58.387Z,225.00
2022-12-11T00:02:58.419Z,225.00
2022-12-11T00:03:58.356Z,225.00
2022-12-11T00:04:58.387Z,260.79
2022-12-11T00:05:58.385Z,270.00
2022-12-11T00:06:58.383Z,270.00
2022-12-11T00:07:58.472Z,270.00
2022-12-11T00:08:58.423Z,270.00
2022-12-11T00:09:58.448Z,270.00
2022-12-11T00:10:58.454Z,270.00
2022-12-11T00:11:58.461Z,241.96
2022-12-11T00:12:58.601Z,135.00
2022-12-11T00:13:58.564Z,135.00
2022-12-11T00:14:58.569Z,135.00
2022-12-11T00:15:58.569Z,135.00
2022-12-11T00:16:58.630Z,178.56
2022-12-11T00:17:58.573Z,315.00
2022-12-11T00:18:58.578Z,315.00
2022-12-11T00:19:58.580Z,315.00
2022-12-11T00:20:58.570Z,315.00
2022-12-11T00:21:58.586Z,315.00
2022-12-11T00:22:58.596Z,315.00
2022-12-11T00:23:58.592Z,315.00
2022-12-11T00:24:58.621Z,315.00
2022-12-11T00:25:58.604Z,315.00
2022-12-11T00:26:58.638Z,315.00
2022-12-11T00:27:58.665Z,315.00
2022-12-11T00:28:58.656Z,315.00
2022-12-11T00:29:58.686Z,315.00
2022-12-11T00:30:58.684Z,315.00
2022-12-11T00:31:58.763Z,315.00
2022-12-11T00:32:58.729Z,315.00
2022-12-11T00:33:58.709Z,287.07
2022-12-11T00:34:58.736Z,9.08
2022-12-11T00:35:58.754Z,45.00
2022-12-11T00:36:58.800Z,45.00
2022-12-11T00:37:58.777Z,45.00
2022-12-11T00:38:58.775Z,45.00
2022-12-11T00:39:58.791Z,17.66
2022-12-11T00:40:58.788Z,315.00
2022-12-11T00:41:58.795Z,315.00
2022-12-11T00:42:58.871Z,325.19
2022-12-11T00:43:58.895Z,315.00
2022-12-11T00:44:58.868Z,315.00
2022-12-11T00:45:58.902Z,315.00
2022-12-11T00:46:58.882Z,315.00
2022-12-11T00:47:58.884Z,315.00
2022-12-11T00:48:58.879Z,315.00
2022-12-11T00:49:58.911Z,315.00
2022-12-11T00:50:58.934Z,315.00
2022-12-11T00:51:58.956Z,315.00
2022-12-11T00:52:58.924Z,340.23
2022-12-11T00:53:59.015Z,0.00
2022-12-11T00:54:58.970Z,0.00
2022-12-11T00:55:58.967Z,0.00
2022-12-11T00:56:58.999Z,0.00
2022-12-11T00:57:58.999Z,0.00
2022-12-11T00:58:59.017Z,0.00
2022-12-11T00:59:59.032Z,0.00
2022-12-11T01:00:59.063Z,0.00
2022-12-11T01:01:59.065Z,0.00
2022-12-11T01:02:59.126Z,0.00
2022-12-11T01:03:59.098Z,0.00
2022-12-11T01:04:59.084Z,0.00
2022-12-11T01:05:59.066Z,0.00
2022-12-11T01:06:59.132Z,0.00
2022-12-11T01:07:59.162Z,0.00
2022-12-11T01:08:59.171Z,0.00
2022-12-11T01:09:59.136Z,0.00
2022-12-11T01:10:59.156Z,0.00
2022-12-11T01:11:59.171Z,0.00
2022-12-11T01:12:59.187Z,0.00
2022-12-11T01:13:59.194Z,348.55
2022-12-11T01:14:59.213Z,315.00
2022-12-11T01:15:59.236Z,315.00
2022-12-11T01:16:59.249Z,315.00
2022-12-11T01:17:59.225Z,315.00
2022-12-11T01:18:59.275Z,315.00
2022-12-11T01:19:59.262Z,315.00
2022-12-11T01:20:59.278Z,315.00
2022-12-11T01:21:59.292Z,315.00
2022-12-11T01:22:59.300Z,315.00
2022-12-11T01:23:59.331Z,315.00
2022-12-11T01:24:59.297Z,315.00
2022-12-11T01:25:59.308Z,315.00
2022-12-11T01:26:59.367Z,315.00
2022-12-11T01:27:59.353Z,315.00
2022-12-11T01:28:59.475Z,315.00
2022-12-11T01:29:59.374Z,315.00
2022-12-11T01:30:59.429Z,315.00
2022-12-11T01:31:59.401Z,315.00
2022-12-11T01:32:59.428Z,315.00
2022-12-11T01:33:59.437Z,315.00
2022-12-11T01:34:59.441Z,315.00
2022-12-11T01:35:59.451Z,315.00
2022-12-11T01:36:59.474Z,315.00
2022-12-11T01:37:59.454Z,315.00
2022-12-11T01:38:59.513Z,315.00
2022-12-11T01:39:59.487Z,315.00
2022-12-11T01:40:59.501Z,315.00
2022-12-11T01:41:59.520Z,315.00
2022-12-11T01:42:59.523Z,315.00
2022-12-11T01:43:59.558Z,315.00
2022-12-11T01:44:59.562Z,315.00
2022-12-11T01:45:59.591Z,315.00
2022-12-11T01:46:59.577Z,18.57
2022-12-11T01:47:59.581Z,90.00
2022-12-11T01:48:59.621Z,90.00
2022-12-11T01:49:59.610Z,90.00
2022-12-11T01:50:59.624Z,90.00
2022-12-11T01:51:59.640Z,90.00
2022-12-11T01:52:59.628Z,90.00
2022-12-11T01:53:59.684Z,90.00
2022-12-11T01:54:59.666Z,90.00
2022-12-11T01:55:59.764Z,90.00
2022-12-11T01:56:59.810Z,30.35
2022-12-11T01:57:59.779Z,270.00
2022-12-11T01:58:59.792Z,270.00
2022-12-11T01:59:59.996Z,270.00
2022-12-11T02:00:59.799Z,270.00
2022-12-11T02:01:59.773Z,270.00
2022-12-11T02:02:59.798Z,270.00
2022-12-11T02:03:59.788Z,270.00
2022-12-11T02:04:59.820Z,270.00
2022-12-11T02:05:59.808Z,270.00
2022-12-11T02:06:59.831Z,270.00
2022-12-11T02:07:59.886Z,270.00
2022-12-11T02:08:59.835Z,270.00
2022-12-11T02:09:59.867Z,270.00
2022-12-11T02:10:59.907Z,270.00
2022-12-11T02:11:59.904Z,270.00
2022-12-11T02:12:59.886Z,270.00
2022-12-11T02:13:59.913Z,270.00
2022-12-11T02:14:59.994Z,270.00
2022-12-11T02:16:00.044Z,292.29
2022-12-11T02:16:59.948Z,315.00
2022-12-11T02:17:59.970Z,315.00
2022-12-11T02:19:00.041Z,315.00
2022-12-11T02:19:59.972Z,315.00
2022-12-11T02:20:59.972Z,315.00
2022-12-11T02:21:59.988Z,315.00
2022-12-11T02:23:00.022Z,315.00
2022-12-11T02:24:00.083Z,315.00
2022-12-11T02:25:01.750Z,315.00
2022-12-11T02:26:00.041Z,315.00
2022-12-11T02:27:00.061Z,315.00
2022-12-11T02:28:00.080Z,315.00
2022-12-11T02:29:00.135Z,315.00
2022-12-11T02:30:00.079Z,315.00
2022-12-11T02:31:00.158Z,315.00
2022-12-11T02:32:00.129Z,315.00
2022-12-11T02:33:00.147Z,315.00
2022-12-11T02:34:00.134Z,315.00
2022-12-11T02:35:00.155Z,315.00
2022-12-11T02:36:00.155Z,315.00
2022-12-11T02:37:00.157Z,315.00
2022-12-11T02:38:00.195Z,315.00
2022-12-11T02:39:00.266Z,315.00
2022-12-11T02:40:00.232Z,315.00
2022-12-11T02:41:00.221Z,315.00
2022-12-11T02:42:00.227Z,315.00
2022-12-11T02:43:00.250Z,315.00
2022-12-11T02:44:00.248Z,315.00
2022-12-11T02:45:00.260Z,315.00
2022-12-11T02:46:00.360Z,315.00
2022-12-11T02:47:00.288Z,315.00
2022-12-11T02:48:00.307Z,315.00
2022-12-11T02:49:00.329Z,315.00
2022-12-11T02:50:00.309Z,315.00
2022-12-11T02:51:00.373Z,315.00
2022-12-11T02:52:00.342Z,315.00
2022-12-11T02:53:00.364Z,315.00
2022-12-11T02:54:00.388Z,315.00
2022-12-11T02:55:00.369Z,315.00
2022-12-11T02:56:00.397Z,315.00
2022-12-11T02:57:00.409Z,315.00
2022-12-11T02:58:00.447Z,315.00
2022-12-11T02:59:00.430Z,315.00
2022-12-11T03:00:00.433Z,315.00
2022-12-11T03:01:00.538Z,315.00
2022-12-11T03:02:00.482Z,315.00
2022-12-11T03:03:00.490Z,315.00
2022-12-11T03:04:00.480Z,315.00
2022-12-11T03:05:00.494Z,315.00
2022-12-11T03:06:00.541Z,315.00
2022-12-11T03:07:00.544Z,315.00
2022-12-11T03:08:00.636Z,315.00
2022-12-11T03:09:00.559Z,315.00
2022-12-11T03:10:00.546Z,315.00
2022-12-11T03:11:00.561Z,315.00
2022-12-11T03:12:00.576Z,315.00
2022-12-11T03:13:00.622Z,315.00
2022-12-11T03:14:00.601Z,315.00
2022-12-11T03:15:00.617Z,315.00
2022-12-11T03:16:00.769Z,315.00
2022-12-11T03:17:00.742Z,315.00
2022-12-11T03:18:00.748Z,315.00
2022-12-11T03:19:00.723Z,315.00
2022-12-11T03:20:00.758Z,315.00
2022-12-11T03:21:00.730Z,315.00
2022-12-11T03:22:00.735Z,315.00
2022-12-11T03:23:00.736Z,315.00
2022-12-11T03:24:00.748Z,315.00
2022-12-11T03:25:00.730Z,315.00
2022-12-11T03:26:00.735Z,315.00
2022-12-11T03:27:01.141Z,315.00
2022-12-11T03:28:00.769Z,315.00
2022-12-11T03:29:00.801Z,315.00
2022-12-11T03:30:00.783Z,315.00
2022-12-11T03:31:00.827Z,315.00
2022-12-11T03:32:00.853Z,315.00
2022-12-11T03:33:00.839Z,315.00
2022-12-11T03:34:00.863Z,315.00
2022-12-11T03:35:00.885Z,315.00
2022-12-11T03:36:00.860Z,315.00
2022-12-11T03:37:00.878Z,315.00
2022-12-11T03:38:00.889Z,315.00
2022-12-11T03:39:00.970Z,315.00
2022-12-11T03:40:00.911Z,315.00
2022-12-11T03:41:00.923Z,315.00
2022-12-11T03:42:00.928Z,315.00
2022-12-11T03:43:00.952Z,315.00
2022-12-11T03:44:01.013Z,315.00
2022-12-11T03:45:00.995Z,315.00
2022-12-11T03:46:01.052Z,315.00
2022-12-11T03:47:00.992Z,315.00
2022-12-11T03:48:01.059Z,315.00
2022-12-11T03:49:01.050Z,315.00
2022-12-11T03:50:01.027Z,315.00
2022-12-11T03:51:01.027Z,315.00
2022-12-11T03:52:01.060Z,315.00
2022-12-11T03:53:01.107Z,315.00
2022-12-11T03:54:01.090Z,315.00
2022-12-11T03:55:01.088Z,315.00
2022-12-11T03:56:01.099Z,315.00
2022-12-11T03:57:01.131Z,315.00
2022-12-11T03:58:33.845Z,315.00
2022-12-11T03:59:33.830Z,315.00
2022-12-11T04:00:33.871Z,315.00
2022-12-11T04:01:33.910Z,315.00
2022-12-11T04:02:33.826Z,315.00
2022-12-11T04:03:33.897Z,315.00
2022-12-11T04:04:33.868Z,315.00
2022-12-11T04:05:33.854Z,315.00
2022-12-11T04:06:33.826Z,315.00
2022-12-11T04:07:33.823Z,315.00
2022-12-11T04:08:33.822Z,309.35
2022-12-11T04:09:33.821Z,315.00
2022-12-11T04:11:23.512Z,315.00
2022-12-11T04:12:23.504Z,315.00
2022-12-11T04:13:23.488Z,315.00
2022-12-11T04:14:23.512Z,315.00
2022-12-11T04:15:23.501Z,315.00
2022-12-11T04:16:23.541Z,315.00
2022-12-11T04:17:23.488Z,315.00
2022-12-11T04:18:23.505Z,328.60
2022-12-11T04:19:23.536Z,2.31
2022-12-11T04:20:23.522Z,0.00
2022-12-11T04:21:23.537Z,0.00
2022-12-11T04:22:23.506Z,0.00
2022-12-11T04:23:23.511Z,0.00
2022-12-11T04:24:23.546Z,0.00
2022-12-11T04:25:23.545Z,0.00
2022-12-11T04:26:23.529Z,0.00
2022-12-11T04:27:23.542Z,0.00
2022-12-11T04:28:23.535Z,0.00
2022-12-11T04:29:23.530Z,0.00
2022-12-11T04:30:23.512Z,0.00
2022-12-11T04:31:23.594Z,0.00
2022-12-11T04:32:23.517Z,0.00
2022-12-11T04:33:23.548Z,0.00
2022-12-11T04:34:23.548Z,0.00
2022-12-11T04:35:23.525Z,0.00
2022-12-11T04:36:23.553Z,300.97
2022-12-11T04:37:23.527Z,225.00
2022-12-11T04:38:23.509Z,225.00
2022-12-11T04:39:23.526Z,225.00
2022-12-11T04:40:23.515Z,225.00
2022-12-11T04:41:23.554Z,225.00
2022-12-11T04:42:23.559Z,225.00
2022-12-11T04:43:23.543Z,225.00
2022-12-11T04:44:23.521Z,225.00
2022-12-11T04:45:23.528Z,225.00
2022-12-11T04:46:23.561Z,225.00
2022-12-11T04:47:23.682Z,225.00
2022-12-11T04:48:23.680Z,225.00
2022-12-11T04:49:23.708Z,225.00
2022-12-11T04:50:23.704Z,225.00
2022-12-11T04:51:23.712Z,225.00
2022-12-11T04:52:23.744Z,225.00
2022-12-11T04:53:23.779Z,225.00
2022-12-11T04:54:23.758Z,225.00
2022-12-11T04:55:23.766Z,225.00
2022-12-11T04:56:23.753Z,227.15
2022-12-11T04:57:23.790Z,315.00
2022-12-11T04:58:23.792Z,315.00
2022-12-11T04:59:23.835Z,315.00
2022-12-11T05:00:23.819Z,315.00
2022-12-11T05:01:23.886Z,315.00
2022-12-11T05:02:23.950Z,315.00
2022-12-11T05:03:23.853Z,315.00
2022-12-11T05:04:23.975Z,315.00
2022-12-11T05:05:23.961Z,315.00
2022-12-11T05:06:23.968Z,315.00
2022-12-11T05:07:23.982Z,315.00
2022-12-11T05:08:24.054Z,315.00
2022-12-11T05:09:23.970Z,315.00
2022-12-11T05:10:23.969Z,315.00
2022-12-11T05:11:23.973Z,315.00
2022-12-11T05:12:24.007Z,315.00
2022-12-11T05:13:23.991Z,315.00
2022-12-11T05:14:24.016Z,315.00
2022-12-11T05:15:23.990Z,315.00
2022-12-11T05:16:24.094Z,315.00
2022-12-11T05:17:24.048Z,315.00
2022-12-11T05:18:24.056Z,315.00
2022-12-11T05:19:24.044Z,315.00
2022-12-11T05:20:24.063Z,315.00
2022-12-11T05:21:24.185Z,315.00
2022-12-11T05:22:24.164Z,315.00
2022-12-11T05:23:24.179Z,315.00
2022-12-11T05:24:24.155Z,315.00
2022-12-11T05:25:24.159Z,315.00
2022-12-11T05:26:24.183Z,315.00
2022-12-11T05:27:24.162Z,315.00
2022-12-11T05:28:24.186Z,315.00
2022-12-11T05:29:24.161Z,315.00
2022-12-11T05:30:24.174Z,315.00
2022-12-11T05:31:24.260Z,315.00
2022-12-11T05:32:24.185Z,315.00
2022-12-11T05:33:24.238Z,315.00
2022-12-11T05:34:24.255Z,315.00
2022-12-11T05:35:24.235Z,315.00
2022-12-11T05:36:24.243Z,315.00
2022-12-11T05:37:24.256Z,315.00
2022-12-11T05:38:24.283Z,315.00
2022-12-11T05:39:24.304Z,315.00
2022-12-11T05:40:24.285Z,315.00
2022-12-11T05:41:24.291Z,315.00
2022-12-11T05:42:28.622Z,315.00
2022-12-11T05:43:24.321Z,315.00
2022-12-11T05:44:24.333Z,315.00
2022-12-11T05:45:24.315Z,315.00
2022-12-11T05:46:24.347Z,315.00
2022-12-11T05:47:24.319Z,315.00
2022-12-11T05:48:24.306Z,315.00
2022-12-11T05:49:30.495Z,315.00
2022-12-11T05:50:24.361Z,347.90
2022-12-11T05:51:24.338Z,0.00
2022-12-11T05:52:24.320Z,0.00
2022-12-11T05:53:24.327Z,0.00
2022-12-11T05:54:24.305Z,0.00
2022-12-11T05:55:24.321Z,0.00
2022-12-11T05:56:24.337Z,358.92
2022-12-11T05:57:24.313Z,315.00
2022-12-11T05:58:24.325Z,315.00
2022-12-11T05:59:24.338Z,315.00
2022-12-11T06:00:24.316Z,331.09
2022-12-11T06:01:24.353Z,0.00
2022-12-11T06:02:24.422Z,0.00
2022-12-11T06:03:24.319Z,0.00
2022-12-11T06:04:24.329Z,0.00
2022-12-11T06:05:24.299Z,0.00
2022-12-11T06:06:24.321Z,0.00
2022-12-11T06:07:24.351Z,0.00
2022-12-11T06:08:24.393Z,0.00
2022-12-11T06:09:24.338Z,0.00
2022-12-11T06:10:24.318Z,0.00
2022-12-11T06:11:24.557Z,0.00
2022-12-11T06:12:24.334Z,0.00
2022-12-11T06:13:24.342Z,0.00
2022-12-11T06:14:24.323Z,46.95
2022-12-11T06:15:24.324Z,90.00
2022-12-11T06:16:24.365Z,90.00
2022-12-11T06:17:24.337Z,90.00
2022-12-11T06:18:24.391Z,90.00
2022-12-11T06:19:24.356Z,90.00
2022-12-11T06:20:24.322Z,90.00
2022-12-11T06:21:24.349Z,90.00
2022-12-11T06:22:24.339Z,90.00
2022-12-11T06:23:24.370Z,90.00
2022-12-11T06:24:24.336Z,90.00
2022-12-11T06:25:24.366Z,90.00
2022-12-11T06:26:24.351Z,90.00
2022-12-11T06:27:24.343Z,9.07
2022-12-11T06:28:24.360Z,315.00
2022-12-11T06:29:24.352Z,315.00
2022-12-11T06:30:37.668Z,315.00
2022-12-11T06:31:24.384Z,315.00
2022-12-11T06:32:24.375Z,315.00
2022-12-11T06:33:24.371Z,315.00
2022-12-11T06:34:24.350Z,315.00
2022-12-11T06:35:24.352Z,315.00
2022-12-11T06:36:24.366Z,315.00
2022-12-11T06:37:24.365Z,315.00
2022-12-11T06:38:24.360Z,315.00
2022-12-11T06:39:24.374Z,315.00
2022-12-11T06:40:24.359Z,315.00
2022-12-11T06:41:24.362Z,315.00
2022-12-11T06:42:24.363Z,315.00
2022-12-11T06:43:24.371Z,315.00
2022-12-11T06:44:24.385Z,315.00
2022-12-11T06:45:24.461Z,315.00
2022-12-11T06:46:24.407Z,315.00
2022-12-11T06:47:24.387Z,315.00
2022-12-11T06:48:24.361Z,315.00
2022-12-11T06:49:24.390Z,315.00
2022-12-11T06:50:24.373Z,315.00
2022-12-11T06:51:24.366Z,315.00
2022-12-11T06:52:24.359Z,315.00
2022-12-11T06:53:24.391Z,315.00
2022-12-11T06:54:24.383Z,315.00
2022-12-11T06:55:24.366Z,315.00
2022-12-11T06:56:24.403Z,315.00
2022-12-11T06:57:24.394Z,315.00
2022-12-11T06:58:24.361Z,315.00
2022-12-11T06:59:24.383Z,315.00
2022-12-11T07:00:24.370Z,315.00
2022-12-11T07:01:24.429Z,315.00
2022-12-11T07:02:24.420Z,315.00
2022-12-11T07:03:24.369Z,315.00
2022-12-11T07:04:24.412Z,315.00
2022-12-11T07:05:24.409Z,315.00
2022-12-11T07:06:24.385Z,315.00
2022-12-11T07:07:24.392Z,315.00
2022-12-11T07:08:24.402Z,315.00
2022-12-11T07:09:24.395Z,315.00
2022-12-11T07:10:24.410Z,315.00
2022-12-11T07:11:24.378Z,315.00
2022-12-11T07:12:24.381Z,315.00
2022-12-11T07:13:24.405Z,315.00
2022-12-11T07:14:24.379Z,315.00
2022-12-11T07:15:24.393Z,315.00
2022-12-11T07:16:24.447Z,315.00
2022-12-11T07:17:24.393Z,315.00
2022-12-11T07:18:24.387Z,315.00
2022-12-11T07:19:24.390Z,315.00
2022-12-11T07:20:24.411Z,315.00
2022-12-11T07:21:24.446Z,315.00
2022-12-11T07:22:24.424Z,315.00
2022-12-11T07:23:24.428Z,315.00
2022-12-11T07:24:24.429Z,315.00
2022-12-11T07:25:24.439Z,315.00
2022-12-11T07:26:24.421Z,315.00
2022-12-11T07:27:24.459Z,315.00
2022-12-11T07:28:24.453Z,315.00
2022-12-11T07:29:24.462Z,315.00
2022-12-11T07:30:24.467Z,315.00
2022-12-11T07:31:24.497Z,315.00
2022-12-11T07:32:24.700Z,315.00
2022-12-11T07:33:24.488Z,315.00
2022-12-11T07:34:24.510Z,315.00
2022-12-11T07:35:24.534Z,315.00
2022-12-11T07:36:24.554Z,315.00
2022-12-11T07:37:24.534Z,315.00
2022-12-11T07:38:24.561Z,315.00
2022-12-11T07:39:24.589Z,305.83
2022-12-11T07:40:24.561Z,315.00
2022-12-11T07:41:24.593Z,294.10
2022-12-11T07:42:24.602Z,270.00
2022-12-11T07:43:24.674Z,270.00
2022-12-11T07:44:24.626Z,270.00
2022-12-11T07:45:24.658Z,270.00
2022-12-11T07:46:24.669Z,270.00
2022-12-11T07:47:24.642Z,270.00
2022-12-11T07:48:24.678Z,270.00
2022-12-11T07:49:24.692Z,270.00
2022-12-11T07:50:24.703Z,270.00
2022-12-11T07:51:24.702Z,270.00
2022-12-11T07:52:24.712Z,179.22
2022-12-11T07:53:24.761Z,135.00
2022-12-11T07:54:24.725Z,135.00
2022-12-11T07:55:24.748Z,135.00
2022-12-11T07:56:24.769Z,135.00
2022-12-11T07:57:24.777Z,135.00
2022-12-11T07:58:24.829Z,135.00
2022-12-11T07:59:24.831Z,135.00
2022-12-11T08:00:24.821Z,135.00
2022-12-11T08:01:24.832Z,135.00
2022-12-11T08:02:24.894Z,135.00
2022-12-11T08:03:24.856Z,135.00
2022-12-11T08:04:24.868Z,135.00
2022-12-11T08:05:24.895Z,135.00
2022-12-11T08:06:24.892Z,135.00
2022-12-11T08:07:24.901Z,135.00
2022-12-11T08:08:24.944Z,135.00
2022-12-11T08:09:24.951Z,135.00
2022-12-11T08:10:25.096Z,135.00
2022-12-11T08:11:24.950Z,168.10
2022-12-11T08:12:24.954Z,270.00
2022-12-11T08:13:24.954Z,270.00
2022-12-11T08:14:24.997Z,270.00
2022-12-11T08:15:24.998Z,270.00
2022-12-11T08:16:25.032Z,270.00
2022-12-11T08:17:30.081Z,270.00
2022-12-11T08:18:25.017Z,270.00
2022-12-11T08:19:25.027Z,270.00
2022-12-11T08:20:25.192Z,270.00
2022-12-11T08:21:25.029Z,270.00
2022-12-11T08:22:25.018Z,270.00
2022-12-11T08:23:25.031Z,270.00
2022-12-11T08:24:25.025Z,270.00
2022-12-11T08:25:25.034Z,270.00
2022-12-11T08:26:25.038Z,270.00
2022-12-11T08:27:25.022Z,270.00
2022-12-11T08:28:27.181Z,270.00
2022-12-11T08:29:25.032Z,270.00
2022-12-11T08:30:25.084Z,270.00
2022-12-11T08:31:25.047Z,270.00
2022-12-11T08:32:25.032Z,270.00
2022-12-11T08:33:25.028Z,270.00
2022-12-11T08:34:25.015Z,286.27
2022-12-11T08:35:25.027Z,315.00
2022-12-11T08:36:25.050Z,315.00
2022-12-11T08:37:25.037Z,315.00
2022-12-11T08:38:25.569Z,315.00
2022-12-11T08:39:25.034Z,315.00
2022-12-11T08:40:25.011Z,315.00
2022-12-11T08:41:25.049Z,288.57
2022-12-11T08:42:25.048Z,270.00
2022-12-11T08:43:25.041Z,270.00
2022-12-11T08:44:25.057Z,270.00
2022-12-11T08:45:25.048Z,270.00
2022-12-11T08:46:25.099Z,270.00
2022-12-11T08:47:25.068Z,270.00
2022-12-11T08:48:25.052Z,270.00
2022-12-11T08:49:27.522Z,270.00
2022-12-11T08:50:25.045Z,270.00
2022-12-11T08:51:25.034Z,270.00
2022-12-11T08:52:25.058Z,270.00
2022-12-11T08:53:25.033Z,270.00
2022-12-11T08:54:25.033Z,270.00
2022-12-11T08:55:25.043Z,270.00
2022-12-11T08:56:25.043Z,270.00
2022-12-11T08:57:25.037Z,270.00
2022-12-11T08:58:25.053Z,270.00
2022-12-11T08:59:25.049Z,270.00
2022-12-11T09:00:25.054Z,270.00
2022-12-11T09:01:25.175Z,270.00
2022-12-11T09:02:25.106Z,270.00
2022-12-11T09:03:25.066Z,270.00
2022-12-11T09:04:25.058Z,270.00
2022-12-11T09:05:25.090Z,270.00
2022-12-11T09:06:25.124Z,270.00
2022-12-11T09:07:25.055Z,270.00
2022-12-11T09:08:25.184Z,270.00
2022-12-11T09:09:25.121Z,270.00
2022-12-11T09:10:25.069Z,270.00
2022-12-11T09:11:25.051Z,270.00
2022-12-11T09:12:25.068Z,270.00
2022-12-11T09:13:25.091Z,270.00
2022-12-11T09:14:25.065Z,270.00
2022-12-11T09:15:25.057Z,270.00
2022-12-11T09:16:25.062Z,270.00
2022-12-11T09:17:25.067Z,270.00
2022-12-11T09:18:25.085Z,270.00
2022-12-11T09:19:30.663Z,270.00
2022-12-11T09:20:25.059Z,270.00
2022-12-11T09:21:25.065Z,270.00
2022-12-11T09:22:25.063Z,270.00
2022-12-11T09:23:25.068Z,270.00
2022-12-11T09:24:25.092Z,270.00
2022-12-11T09:25:25.076Z,270.00
2022-12-11T09:26:25.074Z,270.00
2022-12-11T09:27:25.085Z,270.00
2022-12-11T09:28:25.076Z,270.00
2022-12-11T09:29:25.126Z,270.00
2022-12-11T09:30:25.065Z,270.00
2022-12-11T09:31:25.084Z,270.00
2022-12-11T09:32:25.085Z,270.00
2022-12-11T09:33:25.047Z,270.00
2022-12-11T09:34:29.064Z,270.00
2022-12-11T09:35:25.089Z,270.00
2022-12-11T09:36:25.065Z,270.00
2022-12-11T09:37:25.088Z,272.75
2022-12-11T09:38:25.081Z,315.00
2022-12-11T09:39:25.100Z,315.00
2022-12-11T09:40:25.096Z,315.00
2022-12-11T09:41:25.080Z,315.00
2022-12-11T09:42:25.093Z,315.00
2022-12-11T09:43:25.085Z,315.00
2022-12-11T09:44:25.091Z,315.00
2022-12-11T09:45:25.090Z,315.00
2022-12-11T09:46:26.871Z,315.00
2022-12-11T09:47:25.091Z,315.00
2022-12-11T09:48:25.091Z,315.00
2022-12-11T09:49:25.126Z,315.00
2022-12-11T09:50:25.106Z,315.00
2022-12-11T09:51:25.102Z,315.00
2022-12-11T09:52:25.080Z,315.00
2022-12-11T09:53:25.851Z,315.00
2022-12-11T09:54:25.239Z,315.00
2022-12-11T09:55:25.203Z,315.00
2022-12-11T09:56:25.235Z,315.00
2022-12-11T09:57:25.233Z,315.00
2022-12-11T09:58:25.257Z,315.00
2022-12-11T09:59:25.279Z,315.00
2022-12-11T10:00:25.284Z,315.00
2022-12-11T10:01:25.325Z,315.00
2022-12-11T10:02:25.325Z,315.00
2022-12-11T10:03:25.314Z,315.00
2022-12-11T10:04:25.316Z,315.00
2022-12-11T10:05:25.326Z,315.00
2022-12-11T10:06:25.319Z,247.27
2022-12-11T10:07:25.340Z,261.59
2022-12-11T10:08:25.435Z,315.00
2022-12-11T10:09:25.432Z,315.00
2022-12-11T10:10:25.631Z,315.00
2022-12-11T10:11:52.924Z,315.00
2022-12-11T10:12:47.159Z,315.00
2022-12-11T10:13:47.156Z,315.00
2022-12-11T10:14:47.189Z,315.00
2022-12-11T10:15:47.248Z,315.00
2022-12-11T10:16:47.123Z,315.00
2022-12-11T10:17:47.150Z,315.00
2022-12-11T10:18:47.165Z,315.00
2022-12-11T10:19:47.145Z,315.00
2022-12-11T10:20:47.145Z,315.00
2022-12-11T10:21:47.145Z,315.00
2022-12-11T10:22:47.135Z,315.00
2022-12-11T10:23:47.127Z,315.00
2022-12-11T10:25:11.091Z,315.00
2022-12-11T10:25:47.185Z,315.00
2022-12-11T10:26:47.145Z,315.00
2022-12-11T10:27:47.168Z,315.00
2022-12-11T10:28:47.146Z,315.00
2022-12-11T10:29:47.137Z,315.00
2022-12-11T10:30:47.183Z,315.00
2022-12-11T10:31:47.151Z,315.00
2022-12-11T10:32:47.172Z,315.00
2022-12-11T10:33:47.138Z,315.00
2022-12-11T10:34:47.146Z,315.00
2022-12-11T10:35:47.154Z,315.00
2022-12-11T10:36:47.151Z,315.00
2022-12-11T10:37:47.160Z,315.00
2022-12-11T10:38:47.162Z,315.00
2022-12-11T10:39:47.158Z,315.00
2022-12-11T10:40:47.179Z,315.00
2022-12-11T10:41:47.190Z,309.22
2022-12-11T10:42:47.181Z,315.00
2022-12-11T10:43:47.187Z,315.00
2022-12-11T10:44:47.205Z,315.00
2022-12-11T10:45:47.173Z,315.00
2022-12-11T10:46:47.206Z,315.00
2022-12-11T10:47:47.306Z,315.00
2022-12-11T10:48:47.329Z,315.00
2022-12-11T10:49:47.316Z,315.00
2022-12-11T10:50:47.351Z,135.00
2022-12-11T10:51:47.393Z,135.00
2022-12-11T10:52:47.365Z,135.00
2022-12-11T10:53:47.392Z,135.00
2022-12-11T10:54:47.376Z,135.00
2022-12-11T10:55:47.385Z,315.00
2022-12-11T10:56:47.415Z,315.00
2022-12-11T10:57:47.445Z,315.00
2022-12-11T10:58:47.429Z,315.00
2022-12-11T10:59:47.437Z,315.00
2022-12-11T11:00:47.446Z,315.00
2022-12-11T11:01:47.572Z,315.00
2022-12-11T11:02:47.545Z,315.00
2022-12-11T11:03:47.503Z,315.00
2022-12-11T11:04:47.489Z,315.00
2022-12-11T11:05:49.490Z,315.00
2022-12-11T11:06:47.504Z,315.00
2022-12-11T11:07:47.621Z,315.00
2022-12-11T11:08:47.557Z,315.00
2022-12-11T11:09:47.562Z,315.00
2022-12-11T11:10:47.556Z,315.00
2022-12-11T11:11:47.585Z,315.00
2022-12-11T11:12:47.603Z,315.00
2022-12-11T11:13:47.607Z,315.00
2022-12-11T11:14:47.654Z,315.00
2022-12-11T11:15:47.652Z,315.00
2022-12-11T11:16:47.655Z,315.00
2022-12-11T11:17:54.645Z,315.00
2022-12-11T11:18:47.667Z,315.00
2022-12-11T11:19:47.668Z,315.00
2022-12-11T11:20:47.656Z,315.00
2022-12-11T11:21:47.665Z,315.00
2022-12-11T11:22:47.683Z,315.00
2022-12-11T11:23:53.307Z,315.00
2022-12-11T11:24:47.676Z,315.00
2022-12-11T11:25:47.670Z,315.00
2022-12-11T11:27:12.340Z,315.00
2022-12-11T11:27:47.656Z,315.00
2022-12-11T11:28:47.683Z,315.00
2022-12-11T11:29:50.267Z,315.00
2022-12-11T11:30:47.719Z,90.00
2022-12-11T11:31:47.668Z,90.00
2022-12-11T11:32:47.684Z,90.00
2022-12-11T11:33:47.678Z,84.40
2022-12-11T11:34:47.672Z,346.31
2022-12-11T11:35:47.685Z,315.00
2022-12-11T11:36:47.706Z,315.00
2022-12-11T11:37:47.669Z,315.00
2022-12-11T11:38:47.678Z,315.00
2022-12-11T11:39:47.677Z,315.00
2022-12-11T11:40:47.679Z,315.00
2022-12-11T11:41:47.716Z,315.00
2022-12-11T11:42:47.669Z,298.43
2022-12-11T11:43:47.685Z,298.38
2022-12-11T11:44:47.680Z,315.00
2022-12-11T11:45:47.679Z,315.00
2022-12-11T11:46:47.714Z,327.36
2022-12-11T11:47:47.709Z,90.00
2022-12-11T11:48:47.712Z,81.04
2022-12-11T11:49:47.730Z,315.00
2022-12-11T11:50:47.713Z,315.00
2022-12-11T11:51:47.732Z,327.60
2022-12-11T11:52:47.722Z,4.70
2022-12-11T11:53:47.724Z,0.00
2022-12-11T11:54:47.716Z,0.00
2022-12-11T11:55:47.718Z,0.00
2022-12-11T11:56:47.758Z,0.00
2022-12-11T11:57:47.710Z,0.00
2022-12-11T11:58:47.706Z,0.00
2022-12-11T11:59:47.712Z,0.00
2022-12-11T12:00:47.712Z,0.00
2022-12-11T12:01:47.753Z,323.25
2022-12-11T12:02:47.785Z,315.00
2022-12-11T12:03:47.723Z,315.00
2022-12-11T12:04:47.736Z,315.00
2022-12-11T12:05:47.748Z,315.00
2022-12-11T12:06:50.737Z,315.00
2022-12-11T12:07:47.792Z,315.00
2022-12-11T12:08:47.748Z,344.54
2022-12-11T12:09:47.772Z,0.00
2022-12-11T12:10:47.723Z,0.00
2022-12-11T12:11:47.735Z,0.00
2022-12-11T12:12:47.739Z,0.00
2022-12-11T12:13:50.140Z,0.00
2022-12-11T12:14:52.344Z,0.00
2022-12-11T12:15:47.735Z,0.00
2022-12-11T12:16:53.617Z,0.00
2022-12-11T12:17:52.008Z,0.00
2022-12-11T12:18:47.731Z,0.00
2022-12-11T12:19:47.740Z,0.00
2022-12-11T12:20:47.751Z,0.00
2022-12-11T12:21:47.727Z,0.00
2022-12-11T12:22:47.760Z,19.75
2022-12-11T12:23:47.765Z,90.00
2022-12-11T12:24:47.734Z,90.00
2022-12-11T12:25:47.733Z,55.73
2022-12-11T12:26:47.749Z,315.00
2022-12-11T12:27:52.362Z,315.00
2022-12-11T12:28:47.751Z,315.00
2022-12-11T12:29:48.150Z,315.00
2022-12-11T12:30:47.745Z,297.79
2022-12-11T12:31:47.860Z,310.45
2022-12-11T12:32:47.765Z,315.00
2022-12-11T12:33:47.785Z,315.00
2022-12-11T12:34:47.753Z,315.00
2022-12-11T12:35:47.765Z,315.00
2022-12-11T12:36:47.753Z,315.00